COA564 KBOS-KMKE
Flight info
| Callsign | COA564 |
|---|---|
| Flight time | N/A |
| Altitude | 30000 |
| Route | LOGAN4 BOS BOS350 HYLND ALB SYR BUF DJB MKG |
| Aircraft | B722/M-VW/C |
Departure
| Time | N/A |
|---|---|
| Airport | Boston Logan International Airport (KBOS) |
Arrival
| Time | 2026-04-23 00:38 |
|---|---|
| Airport | General Mitchell International Airport (KMKE) |
| Time | Latitude | Longitude | Altitude | Speed | Heading |
|---|---|---|---|---|---|
| 2026-04-22 23:24 | 42.69967 | -78.93377 | 30006 ft | 468 kts | 209° |
| 2026-04-22 23:24 | 42.64331 | -78.97772 | 30000 ft | 466 kts | 211° |
| 2026-04-22 23:25 | 42.58832 | -79.02461 | 29998 ft | 466 kts | 213° |
| 2026-04-22 23:25 | 42.53509 | -79.07420 | 29999 ft | 466 kts | 216° |
| 2026-04-22 23:26 | 42.48305 | -79.12699 | 30000 ft | 467 kts | 218° |
| 2026-04-22 23:26 | 42.43261 | -79.18257 | 29999 ft | 467 kts | 220° |
| 2026-04-22 23:27 | 42.38384 | -79.24075 | 30000 ft | 468 kts | 223° |
| 2026-04-22 23:27 | 42.33666 | -79.30154 | 30002 ft | 468 kts | 225° |
| 2026-04-22 23:28 | 42.29130 | -79.36450 | 30003 ft | 467 kts | 227° |
| 2026-04-22 23:28 | 42.24763 | -79.42977 | 30001 ft | 468 kts | 229° |
| 2026-04-22 23:29 | 42.20615 | -79.49652 | 29998 ft | 467 kts | 231° |
| 2026-04-22 23:29 | 42.16616 | -79.56581 | 30000 ft | 468 kts | 233° |
| 2026-04-22 23:30 | 42.12813 | -79.63693 | 30000 ft | 467 kts | 235° |
| 2026-04-22 23:30 | 42.09205 | -79.70986 | 30001 ft | 468 kts | 237° |
| 2026-04-22 23:31 | 42.05799 | -79.78457 | 30000 ft | 468 kts | 239° |
| 2026-04-22 23:31 | 42.02629 | -79.86039 | 30002 ft | 467 kts | 242° |
| 2026-04-22 23:32 | 41.99663 | -79.93805 | 30001 ft | 467 kts | 244° |
| 2026-04-22 23:32 | 41.96986 | -80.01761 | 30001 ft | 467 kts | 248° |
| 2026-04-22 23:33 | 41.94685 | -80.09927 | 30003 ft | 467 kts | 250° |
| 2026-04-22 23:33 | 41.92454 | -80.18125 | 29999 ft | 467 kts | 250° |
| 2026-04-22 23:34 | 41.90163 | -80.26279 | 29999 ft | 467 kts | 249° |
| 2026-04-22 23:34 | 41.87841 | -80.34415 | 30001 ft | 466 kts | 249° |
| 2026-04-22 23:35 | 41.85528 | -80.42533 | 30000 ft | 466 kts | 249° |
| 2026-04-22 23:35 | 41.83216 | -80.50667 | 30001 ft | 466 kts | 249° |
| 2026-04-22 23:36 | 41.80923 | -80.58737 | 30000 ft | 466 kts | 249° |
| 2026-04-22 23:36 | 41.78609 | -80.66867 | 30000 ft | 466 kts | 249° |
| 2026-04-22 23:37 | 41.76295 | -80.74991 | 30002 ft | 466 kts | 249° |
| 2026-04-22 23:37 | 41.73982 | -80.83105 | 30002 ft | 466 kts | 249° |
| 2026-04-22 23:38 | 41.71672 | -80.91204 | 30001 ft | 466 kts | 249° |
| 2026-04-22 23:38 | 41.69358 | -80.99310 | 30002 ft | 466 kts | 249° |
| 2026-04-22 23:39 | 41.67054 | -81.07372 | 30001 ft | 467 kts | 249° |
| 2026-04-22 23:39 | 41.64739 | -81.15473 | 30002 ft | 466 kts | 249° |
| 2026-04-22 23:40 | 41.62421 | -81.23575 | 30002 ft | 466 kts | 249° |
| 2026-04-22 23:40 | 41.60102 | -81.31675 | 30002 ft | 466 kts | 249° |
| 2026-04-22 23:41 | 41.57783 | -81.39771 | 30010 ft | 466 kts | 249° |
| 2026-04-22 23:41 | 41.55475 | -81.47822 | 30001 ft | 466 kts | 249° |
| 2026-04-22 23:42 | 41.53157 | -81.55902 | 30002 ft | 466 kts | 249° |
| 2026-04-22 23:42 | 41.50838 | -81.63979 | 30003 ft | 465 kts | 249° |
| 2026-04-22 23:43 | 41.48520 | -81.72049 | 30002 ft | 465 kts | 249° |
| 2026-04-22 23:43 | 41.46198 | -81.80123 | 30001 ft | 466 kts | 249° |
| 2026-04-22 23:44 | 41.43893 | -81.88136 | 30001 ft | 466 kts | 249° |
| 2026-04-22 23:44 | 41.41576 | -81.96184 | 30001 ft | 466 kts | 249° |
| 2026-04-22 23:45 | 41.39252 | -82.04249 | 30003 ft | 466 kts | 249° |
| 2026-04-22 23:45 | 41.36932 | -82.12295 | 30003 ft | 466 kts | 249° |
| 2026-04-22 23:46 | 41.34608 | -82.20348 | 30003 ft | 466 kts | 249° |
| 2026-04-22 23:46 | 41.32285 | -82.28396 | 30001 ft | 466 kts | 249° |
| 2026-04-22 23:47 | 41.29959 | -82.36458 | 30003 ft | 465 kts | 250° |
| 2026-04-22 23:47 | 41.29335 | -82.40602 | 30001 ft | 465 kts | 269° |
| 2026-04-22 23:47 | 41.29578 | -82.44893 | 30013 ft | 466 kts | 279° |
| 2026-04-22 23:48 | 41.31123 | -82.53265 | 30014 ft | 466 kts | 286° |
| 2026-04-22 23:48 | 41.32919 | -82.61556 | 30000 ft | 465 kts | 286° |
| 2026-04-22 23:49 | 41.34712 | -82.69836 | 29999 ft | 465 kts | 286° |
| 2026-04-22 23:49 | 41.36506 | -82.78121 | 30000 ft | 465 kts | 286° |
| 2026-04-22 23:50 | 41.38290 | -82.86359 | 30000 ft | 465 kts | 286° |
| 2026-04-22 23:50 | 41.40404 | -82.94483 | 29994 ft | 465 kts | 295° |
| 2026-04-22 23:51 | 41.43421 | -83.02137 | 30001 ft | 465 kts | 298° |
| 2026-04-22 23:51 | 41.46506 | -83.09726 | 30000 ft | 465 kts | 298° |
| 2026-04-22 23:52 | 41.49905 | -83.17075 | 29999 ft | 465 kts | 304° |
| 2026-04-22 23:52 | 41.53580 | -83.24193 | 30002 ft | 466 kts | 304° |
| 2026-04-22 23:53 | 41.57262 | -83.31312 | 30002 ft | 465 kts | 305° |
| 2026-04-22 23:53 | 41.61165 | -83.38157 | 30004 ft | 466 kts | 307° |
| 2026-04-22 23:54 | 41.65130 | -83.45012 | 30000 ft | 466 kts | 307° |
| 2026-04-22 23:54 | 41.69097 | -83.51874 | 30000 ft | 466 kts | 307° |
| 2026-04-22 23:55 | 41.73063 | -83.58737 | 30001 ft | 466 kts | 307° |
| 2026-04-22 23:55 | 41.77027 | -83.65597 | 30000 ft | 466 kts | 307° |
| 2026-04-22 23:56 | 41.80995 | -83.72468 | 30002 ft | 466 kts | 307° |
| 2026-04-22 23:56 | 41.84936 | -83.79295 | 30001 ft | 466 kts | 307° |
| 2026-04-22 23:57 | 41.88906 | -83.86172 | 30001 ft | 466 kts | 307° |
| 2026-04-22 23:57 | 41.92889 | -83.93044 | 30002 ft | 466 kts | 308° |
| 2026-04-22 23:58 | 41.96870 | -83.99910 | 30002 ft | 466 kts | 308° |
| 2026-04-22 23:58 | 42.00861 | -84.06798 | 30002 ft | 466 kts | 308° |
| 2026-04-22 23:59 | 42.04850 | -84.13683 | 30001 ft | 466 kts | 308° |
| 2026-04-22 23:59 | 42.08854 | -84.20563 | 30000 ft | 466 kts | 308° |
| 2026-04-23 00:00 | 42.14184 | -84.29721 | 30001 ft | 466 kts | 308° |
| 2026-04-23 00:01 | 42.18845 | -84.37733 | 30000 ft | 466 kts | 308° |
| 2026-04-23 00:01 | 42.22853 | -84.44612 | 30000 ft | 466 kts | 308° |
| 2026-04-23 00:02 | 42.26871 | -84.51492 | 30000 ft | 466 kts | 308° |
| 2026-04-23 00:02 | 42.30877 | -84.58354 | 30000 ft | 466 kts | 308° |
| 2026-04-23 00:03 | 42.34895 | -84.65241 | 30001 ft | 466 kts | 308° |
| 2026-04-23 00:03 | 42.38928 | -84.72137 | 30000 ft | 466 kts | 308° |
| 2026-04-23 00:04 | 42.42314 | -84.77820 | 30001 ft | 466 kts | 309° |
| 2026-04-23 00:04 | 42.44368 | -84.81235 | 29822 ft | 467 kts | 309° |
| 2026-04-23 00:04 | 42.46410 | -84.84628 | 29602 ft | 464 kts | 309° |
| 2026-04-23 00:04 | 42.48449 | -84.88017 | 29373 ft | 462 kts | 309° |
| 2026-04-23 00:05 | 42.50472 | -84.91380 | 29149 ft | 460 kts | 309° |
| 2026-04-23 00:05 | 42.52493 | -84.94740 | 28923 ft | 458 kts | 309° |
| 2026-04-23 00:05 | 42.54506 | -84.98087 | 28702 ft | 457 kts | 309° |
| 2026-04-23 00:05 | 42.56511 | -85.01422 | 28470 ft | 455 kts | 309° |
| 2026-04-23 00:06 | 42.58513 | -85.04752 | 28247 ft | 454 kts | 309° |
| 2026-04-23 00:06 | 42.60509 | -85.08072 | 28025 ft | 452 kts | 309° |
| 2026-04-23 00:06 | 42.62469 | -85.11333 | 28001 ft | 450 kts | 309° |
| 2026-04-23 00:06 | 42.64457 | -85.14642 | 27996 ft | 451 kts | 309° |
| 2026-04-23 00:07 | 42.66443 | -85.17947 | 28000 ft | 452 kts | 309° |
| 2026-04-23 00:07 | 42.70421 | -85.24571 | 28011 ft | 452 kts | 309° |
| 2026-04-23 00:07 | 42.72415 | -85.27891 | 27997 ft | 452 kts | 309° |
| 2026-04-23 00:08 | 42.74406 | -85.31208 | 28006 ft | 452 kts | 309° |
| 2026-04-23 00:08 | 42.78435 | -85.37793 | 27898 ft | 454 kts | 310° |
| 2026-04-23 00:08 | 42.80454 | -85.41077 | 27548 ft | 450 kts | 310° |
| 2026-04-23 00:09 | 42.82457 | -85.44334 | 27197 ft | 447 kts | 310° |
| 2026-04-23 00:09 | 42.84441 | -85.47561 | 26846 ft | 444 kts | 310° |
| 2026-04-23 00:09 | 42.86392 | -85.50735 | 26498 ft | 441 kts | 310° |
| 2026-04-23 00:09 | 42.88356 | -85.53932 | 26148 ft | 439 kts | 310° |
| 2026-04-23 00:10 | 42.90314 | -85.57117 | 25799 ft | 437 kts | 310° |
| 2026-04-23 00:10 | 42.92258 | -85.60281 | 25449 ft | 434 kts | 310° |
| 2026-04-23 00:10 | 42.94198 | -85.63438 | 25098 ft | 432 kts | 310° |
| 2026-04-23 00:10 | 42.96123 | -85.66570 | 24750 ft | 429 kts | 310° |
| 2026-04-23 00:11 | 42.98038 | -85.69689 | 24398 ft | 427 kts | 310° |
| 2026-04-23 00:11 | 42.99947 | -85.72797 | 24049 ft | 425 kts | 310° |
| 2026-04-23 00:11 | 43.01840 | -85.75879 | 23823 ft | 425 kts | 310° |
| 2026-04-23 00:11 | 43.03738 | -85.78969 | 23472 ft | 422 kts | 310° |
| 2026-04-23 00:12 | 43.05618 | -85.82032 | 23120 ft | 419 kts | 310° |
| 2026-04-23 00:12 | 43.07461 | -85.85034 | 23001 ft | 416 kts | 310° |
| 2026-04-23 00:12 | 43.09324 | -85.88070 | 23002 ft | 418 kts | 310° |
| 2026-04-23 00:12 | 43.11196 | -85.91120 | 23005 ft | 418 kts | 310° |
| 2026-04-23 00:13 | 43.13067 | -85.94170 | 23007 ft | 418 kts | 310° |
| 2026-04-23 00:13 | 43.14941 | -85.97225 | 23008 ft | 418 kts | 310° |
| 2026-04-23 00:13 | 43.16813 | -86.00277 | 23008 ft | 418 kts | 310° |
| 2026-04-23 00:13 | 43.18648 | -86.03380 | 23001 ft | 418 kts | 304° |
| 2026-04-23 00:14 | 43.19839 | -86.06983 | 22992 ft | 418 kts | 282° |
| 2026-04-23 00:14 | 43.19885 | -86.10936 | 23006 ft | 417 kts | 261° |
| 2026-04-23 00:14 | 43.19181 | -86.14807 | 23013 ft | 418 kts | 252° |
| 2026-04-23 00:14 | 43.18249 | -86.18576 | 23013 ft | 418 kts | 250° |
| 2026-04-23 00:15 | 43.17263 | -86.22333 | 23006 ft | 418 kts | 250° |
| 2026-04-23 00:15 | 43.16292 | -86.26089 | 23011 ft | 418 kts | 251° |
| 2026-04-23 00:15 | 43.15361 | -86.29856 | 23007 ft | 418 kts | 252° |
| 2026-04-23 00:15 | 43.14478 | -86.33650 | 23007 ft | 418 kts | 253° |
| 2026-04-23 00:16 | 43.13647 | -86.37462 | 23007 ft | 418 kts | 254° |
| 2026-04-23 00:16 | 43.12870 | -86.41297 | 23007 ft | 418 kts | 255° |
| 2026-04-23 00:16 | 43.12150 | -86.45146 | 23006 ft | 418 kts | 256° |
| 2026-04-23 00:16 | 43.11489 | -86.48980 | 22795 ft | 419 kts | 257° |
| 2026-04-23 00:17 | 43.10879 | -86.52871 | 22398 ft | 415 kts | 258° |
| 2026-04-23 00:17 | 43.10331 | -86.56719 | 21995 ft | 411 kts | 259° |
| 2026-04-23 00:17 | 43.09839 | -86.60562 | 21593 ft | 409 kts | 261° |
| 2026-04-23 00:17 | 43.09403 | -86.64394 | 21191 ft | 406 kts | 262° |
| 2026-04-23 00:18 | 43.09023 | -86.68215 | 20791 ft | 404 kts | 263° |
| 2026-04-23 00:18 | 43.08703 | -86.72016 | 20386 ft | 401 kts | 264° |
| 2026-04-23 00:18 | 43.08448 | -86.75801 | 19992 ft | 399 kts | 265° |
| 2026-04-23 00:18 | 43.08260 | -86.79590 | 19590 ft | 396 kts | 266° |
| 2026-04-23 00:19 | 43.08124 | -86.83335 | 19193 ft | 394 kts | 268° |
| 2026-04-23 00:19 | 43.08078 | -86.87075 | 18791 ft | 392 kts | 270° |
| 2026-04-23 00:19 | 43.08119 | -86.90790 | 18391 ft | 389 kts | 271° |
| 2026-04-23 00:19 | 43.08210 | -86.94482 | 17991 ft | 387 kts | 272° |
| 2026-04-23 00:20 | 43.08319 | -86.98102 | 17596 ft | 385 kts | 272° |
| 2026-04-23 00:20 | 43.08431 | -87.01748 | 17196 ft | 382 kts | 272° |
| 2026-04-23 00:20 | 43.08537 | -87.05409 | 16850 ft | 379 kts | 272° |
| 2026-04-23 00:20 | 43.08635 | -87.09020 | 16593 ft | 379 kts | 272° |
| 2026-04-23 00:21 | 43.08728 | -87.12566 | 16353 ft | 378 kts | 272° |
| 2026-04-23 00:21 | 43.08991 | -87.16134 | 16107 ft | 376 kts | 277° |
| 2026-04-23 00:21 | 43.09068 | -87.19696 | 15847 ft | 375 kts | 267° |
| 2026-04-23 00:21 | 43.08879 | -87.23252 | 15601 ft | 374 kts | 265° |
| 2026-04-23 00:22 | 43.08670 | -87.26794 | 15353 ft | 372 kts | 265° |
| 2026-04-23 00:22 | 43.08461 | -87.30322 | 15103 ft | 371 kts | 265° |
| 2026-04-23 00:22 | 43.08254 | -87.33833 | 14844 ft | 369 kts | 265° |
| 2026-04-23 00:22 | 43.08047 | -87.37330 | 14603 ft | 368 kts | 265° |
| 2026-04-23 00:23 | 43.07841 | -87.40814 | 14353 ft | 367 kts | 265° |
| 2026-04-23 00:23 | 43.07636 | -87.44289 | 14103 ft | 365 kts | 265° |
| 2026-04-23 00:23 | 43.07431 | -87.47754 | 13845 ft | 364 kts | 265° |
| 2026-04-23 00:23 | 43.07230 | -87.51157 | 13446 ft | 362 kts | 265° |
| 2026-04-23 00:24 | 43.07028 | -87.54583 | 13031 ft | 360 kts | 265° |
| 2026-04-23 00:24 | 43.06827 | -87.57979 | 12644 ft | 357 kts | 265° |
| 2026-04-23 00:24 | 43.06627 | -87.61368 | 12239 ft | 355 kts | 265° |
| 2026-04-23 00:24 | 43.06428 | -87.64734 | 11841 ft | 353 kts | 265° |
| 2026-04-23 00:25 | 43.06231 | -87.68073 | 11440 ft | 351 kts | 265° |
| 2026-04-23 00:25 | 43.06035 | -87.71394 | 11040 ft | 349 kts | 265° |
| 2026-04-23 00:25 | 43.05841 | -87.74689 | 10641 ft | 347 kts | 265° |
| 2026-04-23 00:25 | 43.05647 | -87.77978 | 10239 ft | 345 kts | 265° |
| 2026-04-23 00:26 | 43.05457 | -87.81195 | 9843 ft | 343 kts | 265° |
| 2026-04-23 00:26 | 43.05267 | -87.84413 | 9443 ft | 330 kts | 265° |
| 2026-04-23 00:26 | 43.05088 | -87.87438 | 9023 ft | 309 kts | 265° |
| 2026-04-23 00:26 | 43.04919 | -87.90293 | 8594 ft | 294 kts | 265° |
| 2026-04-23 00:27 | 43.04759 | -87.93013 | 8163 ft | 281 kts | 265° |
| 2026-04-23 00:27 | 43.04457 | -87.95597 | 7734 ft | 271 kts | 256° |
| 2026-04-23 00:27 | 43.03998 | -87.98061 | 7312 ft | 263 kts | 256° |
| 2026-04-23 00:27 | 43.03547 | -88.00460 | 6893 ft | 257 kts | 256° |
| 2026-04-23 00:28 | 43.03104 | -88.02813 | 6472 ft | 256 kts | 256° |
| 2026-04-23 00:28 | 43.02659 | -88.05176 | 6081 ft | 257 kts | 256° |
| 2026-04-23 00:28 | 43.02214 | -88.07546 | 5684 ft | 258 kts | 256° |
| 2026-04-23 00:28 | 43.01766 | -88.09926 | 5296 ft | 258 kts | 256° |
| 2026-04-23 00:29 | 43.01319 | -88.12304 | 4903 ft | 259 kts | 256° |
| 2026-04-23 00:29 | 43.00871 | -88.14684 | 4509 ft | 259 kts | 256° |
| 2026-04-23 00:29 | 43.00425 | -88.17055 | 4171 ft | 251 kts | 256° |
| 2026-04-23 00:29 | 43.00001 | -88.19309 | 3883 ft | 242 kts | 256° |
| 2026-04-23 00:30 | 42.99578 | -88.21510 | 3575 ft | 235 kts | 253° |
| 2026-04-23 00:30 | 42.98843 | -88.23444 | 3271 ft | 229 kts | 231° |
| 2026-04-23 00:30 | 42.97765 | -88.25026 | 3025 ft | 224 kts | 225° |
| 2026-04-23 00:30 | 42.96710 | -88.26501 | 2975 ft | 212 kts | 226° |
| 2026-04-23 00:31 | 42.95690 | -88.27930 | 2971 ft | 209 kts | 226° |
| 2026-04-23 00:31 | 42.94648 | -88.29265 | 2957 ft | 208 kts | 214° |
| 2026-04-23 00:31 | 42.93248 | -88.29708 | 2988 ft | 209 kts | 174° |
| 2026-04-23 00:31 | 42.91818 | -88.29286 | 2996 ft | 211 kts | 166° |
| 2026-04-23 00:32 | 42.90414 | -88.28789 | 2996 ft | 210 kts | 165° |
| 2026-04-23 00:32 | 42.89145 | -88.27837 | 2957 ft | 211 kts | 130° |
| 2026-04-23 00:32 | 42.88600 | -88.26004 | 3003 ft | 212 kts | 99° |
| 2026-04-23 00:32 | 42.88442 | -88.24010 | 2995 ft | 212 kts | 94° |
| 2026-04-23 00:33 | 42.88596 | -88.22023 | 2997 ft | 211 kts | 76° |
| 2026-04-23 00:33 | 42.88937 | -88.20065 | 2995 ft | 212 kts | 75° |
| 2026-04-23 00:33 | 42.89522 | -88.18232 | 2985 ft | 212 kts | 58° |
| 2026-04-23 00:33 | 42.90302 | -88.16526 | 2959 ft | 213 kts | 67° |
| 2026-04-23 00:34 | 42.90476 | -88.14517 | 2625 ft | 218 kts | 99° |
| 2026-04-23 00:34 | 42.90073 | -88.12541 | 2367 ft | 213 kts | 107° |
| 2026-04-23 00:34 | 42.89723 | -88.10613 | 2184 ft | 206 kts | 97° |
| 2026-04-23 00:34 | 42.89751 | -88.08703 | 2045 ft | 198 kts | 78° |
| 2026-04-23 00:35 | 42.90130 | -88.06914 | 1847 ft | 196 kts | 71° |
| 2026-04-23 00:35 | 42.90560 | -88.05179 | 1718 ft | 187 kts | 70° |
| 2026-04-23 00:35 | 42.90997 | -88.03564 | 1632 ft | 171 kts | 70° |
| 2026-04-23 00:35 | 42.91341 | -88.02130 | 1413 ft | 152 kts | 72° |
| 2026-04-23 00:36 | 42.91649 | -88.00817 | 1377 ft | 143 kts | 72° |
| 2026-04-23 00:36 | 42.91975 | -87.99475 | 1466 ft | 153 kts | 71° |
| 2026-04-23 00:36 | 42.92331 | -87.98098 | 1529 ft | 151 kts | 70° |
| 2026-04-23 00:36 | 42.92668 | -87.96755 | 1442 ft | 148 kts | 71° |
| 2026-04-23 00:37 | 42.93009 | -87.95429 | 1294 ft | 147 kts | 70° |
| 2026-04-23 00:37 | 42.93328 | -87.94128 | 1139 ft | 143 kts | 71° |
| 2026-04-23 00:37 | 42.93646 | -87.92837 | 904 ft | 143 kts | 71° |
| 2026-04-23 00:37 | 42.93959 | -87.91561 | 698 ft | 140 kts | 71° |
| 2026-04-23 00:38 | 42.94229 | -87.90455 | 684 ft | 99 kts | 71° |
| 2026-04-23 00:38 | 42.94396 | -87.89780 | 691 ft | 56 kts | 72° |
| 2026-04-23 00:38 | 42.94485 | -87.89402 | 691 ft | 33 kts | 71° |
| 2026-04-23 00:38 | 42.94532 | -87.89210 | 686 ft | 18 kts | 72° |
| 2026-04-23 00:39 | 42.94609 | -87.89120 | 689 ft | 16 kts | 8° |
| 2026-04-23 00:39 | 42.94652 | -87.89197 | 691 ft | 13 kts | 253° |
| 2026-04-23 00:39 | 42.94620 | -87.89329 | 691 ft | 16 kts | 252° |
| 2026-04-23 00:39 | 42.94615 | -87.89492 | 687 ft | 18 kts | 276° |
| 2026-04-23 00:40 | 42.94631 | -87.89616 | 689 ft | 9 kts | 307° |
| 2026-04-23 00:40 | 42.94702 | -87.89631 | 687 ft | 13 kts | 8° |
| 2026-04-23 00:40 | 42.94760 | -87.89667 | 687 ft | 9 kts | 298° |
| 2026-04-23 00:40 | 42.94822 | -87.89713 | 688 ft | 12 kts | 5° |
| 2026-04-23 00:41 | 42.94909 | -87.89708 | 687 ft | 15 kts | 354° |
| 2026-04-23 00:41 | 42.94975 | -87.89768 | 688 ft | 11 kts | 304° |
| 2026-04-23 00:41 | 42.94977 | -87.89874 | 691 ft | 13 kts | 252° |
| 2026-04-23 00:41 | 42.94925 | -87.89984 | 687 ft | 12 kts | 237° |
| 2026-04-23 00:42 | 42.94943 | -87.90056 | 687 ft | 3 kts | 318° |
| 2026-04-23 00:42 | 42.94945 | -87.90059 | 688 ft | 0 kts | 318° |